sensor_id;sensor_type;location;lat;lon;timestamp;P1;durP1;ratioP1;P2;durP2;ratioP2
32613;SDS011;19031;51.400;6.770;2023-09-12T00:00:05;22.67;;;13.05;;
32613;SDS011;19031;51.400;6.770;2023-09-12T00:02:31;21.13;;;13.60;;
32613;SDS011;19031;51.400;6.770;2023-09-12T00:04:56;21.48;;;12.93;;
32613;SDS011;19031;51.400;6.770;2023-09-12T00:07:22;24.38;;;13.68;;
32613;SDS011;19031;51.400;6.770;2023-09-12T00:09:47;22.25;;;13.57;;
32613;SDS011;19031;51.400;6.770;2023-09-12T00:12:14;24.45;;;13.35;;
32613;SDS011;19031;51.400;6.770;2023-09-12T00:14:40;15.88;;;10.98;;
32613;SDS011;19031;51.400;6.770;2023-09-12T00:17:06;26.65;;;15.48;;
32613;SDS011;19031;51.400;6.770;2023-09-12T00:19:31;20.98;;;15.18;;
32613;SDS011;19031;51.400;6.770;2023-09-12T00:21:57;21.27;;;14.10;;
32613;SDS011;19031;51.400;6.770;2023-09-12T00:24:23;24.92;;;17.00;;
32613;SDS011;19031;51.400;6.770;2023-09-12T00:26:49;30.77;;;17.98;;
32613;SDS011;19031;51.400;6.770;2023-09-12T00:29:14;25.40;;;16.58;;
32613;SDS011;19031;51.400;6.770;2023-09-12T00:31:40;26.15;;;16.10;;
32613;SDS011;19031;51.400;6.770;2023-09-12T00:34:05;24.65;;;15.32;;
32613;SDS011;19031;51.400;6.770;2023-09-12T00:36:31;31.85;;;16.33;;
32613;SDS011;19031;51.400;6.770;2023-09-12T00:38:58;28.13;;;16.80;;
32613;SDS011;19031;51.400;6.770;2023-09-12T00:41:23;28.10;;;17.17;;
32613;SDS011;19031;51.400;6.770;2023-09-12T00:43:49;30.10;;;16.95;;
32613;SDS011;19031;51.400;6.770;2023-09-12T00:46:20;22.73;;;14.85;;
32613;SDS011;19031;51.400;6.770;2023-09-12T00:48:48;16.70;;;11.98;;
32613;SDS011;19031;51.400;6.770;2023-09-12T00:51:16;18.27;;;13.60;;
32613;SDS011;19031;51.400;6.770;2023-09-12T00:53:45;26.60;;;15.95;;
32613;SDS011;19031;51.400;6.770;2023-09-12T00:56:12;24.25;;;15.40;;
32613;SDS011;19031;51.400;6.770;2023-09-12T00:58:38;23.15;;;14.57;;
32613;SDS011;19031;51.400;6.770;2023-09-12T01:01:04;26.92;;;16.13;;
32613;SDS011;19031;51.400;6.770;2023-09-12T01:03:29;25.60;;;16.45;;
32613;SDS011;19031;51.400;6.770;2023-09-12T01:05:56;25.00;;;15.77;;
32613;SDS011;19031;51.400;6.770;2023-09-12T01:08:23;24.67;;;15.55;;
32613;SDS011;19031;51.400;6.770;2023-09-12T01:10:49;24.80;;;16.33;;
32613;SDS011;19031;51.400;6.770;2023-09-12T01:13:18;26.17;;;14.40;;
32613;SDS011;19031;51.400;6.770;2023-09-12T01:15:44;24.83;;;14.27;;
32613;SDS011;19031;51.400;6.770;2023-09-12T01:18:09;24.45;;;15.40;;
32613;SDS011;19031;51.400;6.770;2023-09-12T01:20:36;31.35;;;14.77;;
32613;SDS011;19031;51.400;6.770;2023-09-12T01:28:41;25.73;;;15.45;;
32613;SDS011;19031;51.400;6.770;2023-09-12T01:31:09;22.42;;;14.32;;
32613;SDS011;19031;51.400;6.770;2023-09-12T01:33:36;27.30;;;15.88;;
32613;SDS011;19031;51.400;6.770;2023-09-12T01:36:01;25.23;;;16.23;;
32613;SDS011;19031;51.400;6.770;2023-09-12T01:38:27;27.25;;;16.05;;
32613;SDS011;19031;51.400;6.770;2023-09-12T01:40:54;25.40;;;14.73;;
32613;SDS011;19031;51.400;6.770;2023-09-12T01:43:24;23.45;;;14.40;;
32613;SDS011;19031;51.400;6.770;2023-09-12T01:45:55;26.35;;;14.48;;
32613;SDS011;19031;51.400;6.770;2023-09-12T01:48:24;23.58;;;13.65;;
32613;SDS011;19031;51.400;6.770;2023-09-12T01:50:52;25.67;;;15.13;;
32613;SDS011;19031;51.400;6.770;2023-09-12T01:53:18;26.58;;;15.55;;
32613;SDS011;19031;51.400;6.770;2023-09-12T01:55:45;21.35;;;13.95;;
32613;SDS011;19031;51.400;6.770;2023-09-12T01:58:11;21.55;;;15.13;;
32613;SDS011;19031;51.400;6.770;2023-09-12T02:00:38;30.45;;;15.30;;
32613;SDS011;19031;51.400;6.770;2023-09-12T02:03:05;21.80;;;13.88;;
32613;SDS011;19031;51.400;6.770;2023-09-12T02:05:30;24.20;;;14.18;;
32613;SDS011;19031;51.400;6.770;2023-09-12T02:07:57;24.80;;;16.63;;
32613;SDS011;19031;51.400;6.770;2023-09-12T02:10:25;24.33;;;16.38;;
32613;SDS011;19031;51.400;6.770;2023-09-12T02:12:51;22.95;;;16.58;;
32613;SDS011;19031;51.400;6.770;2023-09-12T02:15:16;26.17;;;16.67;;
32613;SDS011;19031;51.400;6.770;2023-09-12T02:17:42;26.25;;;17.58;;
32613;SDS011;19031;51.400;6.770;2023-09-12T02:20:08;25.17;;;17.13;;
32613;SDS011;19031;51.400;6.770;2023-09-12T02:22:34;22.88;;;15.50;;
32613;SDS011;19031;51.400;6.770;2023-09-12T02:25:00;26.13;;;18.70;;
32613;SDS011;19031;51.400;6.770;2023-09-12T02:27:25;26.60;;;17.23;;
32613;SDS011;19031;51.400;6.770;2023-09-12T02:29:51;28.77;;;18.13;;
32613;SDS011;19031;51.400;6.770;2023-09-12T02:32:18;24.08;;;15.90;;
32613;SDS011;19031;51.400;6.770;2023-09-12T02:34:44;28.23;;;17.30;;
32613;SDS011;19031;51.400;6.770;2023-09-12T02:37:09;28.75;;;17.55;;
32613;SDS011;19031;51.400;6.770;2023-09-12T02:39:35;23.35;;;16.63;;
32613;SDS011;19031;51.400;6.770;2023-09-12T02:42:01;25.15;;;16.80;;
32613;SDS011;19031;51.400;6.770;2023-09-12T02:44:27;26.17;;;16.35;;
32613;SDS011;19031;51.400;6.770;2023-09-12T02:46:53;24.33;;;16.05;;
32613;SDS011;19031;51.400;6.770;2023-09-12T02:49:18;27.88;;;17.10;;
32613;SDS011;19031;51.400;6.770;2023-09-12T02:51:45;28.52;;;17.95;;
32613;SDS011;19031;51.400;6.770;2023-09-12T02:54:10;26.67;;;16.10;;
32613;SDS011;19031;51.400;6.770;2023-09-12T02:56:36;30.48;;;17.60;;
32613;SDS011;19031;51.400;6.770;2023-09-12T02:59:01;26.02;;;18.38;;
32613;SDS011;19031;51.400;6.770;2023-09-12T03:01:27;26.55;;;16.75;;
32613;SDS011;19031;51.400;6.770;2023-09-12T03:03:53;31.58;;;18.25;;
32613;SDS011;19031;51.400;6.770;2023-09-12T03:06:19;22.52;;;14.63;;
32613;SDS011;19031;51.400;6.770;2023-09-12T03:08:45;28.02;;;19.02;;
32613;SDS011;19031;51.400;6.770;2023-09-12T03:11:11;31.90;;;18.77;;
32613;SDS011;19031;51.400;6.770;2023-09-12T03:13:39;29.48;;;19.70;;
32613;SDS011;19031;51.400;6.770;2023-09-12T03:16:05;31.05;;;20.10;;
32613;SDS011;19031;51.400;6.770;2023-09-12T03:18:35;27.63;;;17.30;;
32613;SDS011;19031;51.400;6.770;2023-09-12T03:21:00;26.92;;;15.70;;
32613;SDS011;19031;51.400;6.770;2023-09-12T03:23:26;35.80;;;19.83;;
32613;SDS011;19031;51.400;6.770;2023-09-12T03:25:52;27.58;;;19.35;;
32613;SDS011;19031;51.400;6.770;2023-09-12T03:28:18;24.10;;;17.13;;
32613;SDS011;19031;51.400;6.770;2023-09-12T03:30:43;31.45;;;20.33;;
32613;SDS011;19031;51.400;6.770;2023-09-12T03:33:09;38.42;;;19.75;;
32613;SDS011;19031;51.400;6.770;2023-09-12T03:35:36;25.38;;;17.02;;
32613;SDS011;19031;51.400;6.770;2023-09-12T03:38:02;35.33;;;21.23;;
32613;SDS011;19031;51.400;6.770;2023-09-12T03:40:28;38.80;;;22.40;;
32613;SDS011;19031;51.400;6.770;2023-09-12T03:42:55;32.53;;;21.40;;
32613;SDS011;19031;51.400;6.770;2023-09-12T03:45:21;37.60;;;23.20;;
32613;SDS011;19031;51.400;6.770;2023-09-12T03:47:47;33.10;;;22.30;;
32613;SDS011;19031;51.400;6.770;2023-09-12T03:50:12;37.55;;;22.67;;
32613;SDS011;19031;51.400;6.770;2023-09-12T03:52:41;38.25;;;24.00;;
32613;SDS011;19031;51.400;6.770;2023-09-12T03:55:07;32.17;;;22.25;;
32613;SDS011;19031;51.400;6.770;2023-09-12T03:57:36;36.60;;;24.30;;
32613;SDS011;19031;51.400;6.770;2023-09-12T04:00:01;41.35;;;25.15;;
32613;SDS011;19031;51.400;6.770;2023-09-12T04:02:31;38.92;;;26.65;;
32613;SDS011;19031;51.400;6.770;2023-09-12T04:04:57;38.05;;;26.33;;
32613;SDS011;19031;51.400;6.770;2023-09-12T04:07:24;36.92;;;25.48;;
32613;SDS011;19031;51.400;6.770;2023-09-12T04:09:49;41.03;;;27.10;;
32613;SDS011;19031;51.400;6.770;2023-09-12T04:12:15;39.55;;;25.38;;
32613;SDS011;19031;51.400;6.770;2023-09-12T04:14:41;29.17;;;19.70;;
32613;SDS011;19031;51.400;6.770;2023-09-12T04:17:06;27.25;;;19.77;;
32613;SDS011;19031;51.400;6.770;2023-09-12T04:19:33;41.50;;;26.65;;
32613;SDS011;19031;51.400;6.770;2023-09-12T04:21:58;35.38;;;25.60;;
32613;SDS011;19031;51.400;6.770;2023-09-12T04:24:25;39.20;;;26.15;;
32613;SDS011;19031;51.400;6.770;2023-09-12T04:26:50;39.13;;;27.75;;
32613;SDS011;19031;51.400;6.770;2023-09-12T04:29:16;44.58;;;27.88;;
32613;SDS011;19031;51.400;6.770;2023-09-12T04:31:42;34.75;;;22.45;;
32613;SDS011;19031;51.400;6.770;2023-09-12T04:34:09;46.20;;;27.55;;
32613;SDS011;19031;51.400;6.770;2023-09-12T04:36:37;35.58;;;24.58;;
32613;SDS011;19031;51.400;6.770;2023-09-12T04:39:03;39.97;;;27.33;;
32613;SDS011;19031;51.400;6.770;2023-09-12T04:41:30;26.27;;;18.02;;
32613;SDS011;19031;51.400;6.770;2023-09-12T04:43:55;37.42;;;25.15;;
32613;SDS011;19031;51.400;6.770;2023-09-12T04:46:23;37.67;;;24.20;;
32613;SDS011;19031;51.400;6.770;2023-09-12T04:48:49;42.75;;;28.25;;
32613;SDS011;19031;51.400;6.770;2023-09-12T04:51:15;41.63;;;26.08;;
32613;SDS011;19031;51.400;6.770;2023-09-12T04:53:40;41.25;;;26.90;;
32613;SDS011;19031;51.400;6.770;2023-09-12T04:56:06;34.55;;;25.40;;
32613;SDS011;19031;51.400;6.770;2023-09-12T04:58:35;34.75;;;24.65;;
32613;SDS011;19031;51.400;6.770;2023-09-12T05:01:01;38.97;;;28.15;;
32613;SDS011;19031;51.400;6.770;2023-09-12T05:03:29;41.20;;;26.73;;
32613;SDS011;19031;51.400;6.770;2023-09-12T05:05:54;37.15;;;26.05;;
32613;SDS011;19031;51.400;6.770;2023-09-12T05:08:20;44.42;;;27.27;;
32613;SDS011;19031;51.400;6.770;2023-09-12T05:10:46;41.55;;;25.60;;
32613;SDS011;19031;51.400;6.770;2023-09-12T05:13:12;36.35;;;24.67;;
32613;SDS011;19031;51.400;6.770;2023-09-12T05:15:39;34.55;;;24.55;;
32613;SDS011;19031;51.400;6.770;2023-09-12T05:18:06;31.52;;;21.77;;
32613;SDS011;19031;51.400;6.770;2023-09-12T05:20:32;32.80;;;23.80;;
32613;SDS011;19031;51.400;6.770;2023-09-12T05:22:58;38.85;;;26.10;;
32613;SDS011;19031;51.400;6.770;2023-09-12T05:25:24;42.05;;;27.92;;
32613;SDS011;19031;51.400;6.770;2023-09-12T05:27:52;35.35;;;24.48;;
32613;SDS011;19031;51.400;6.770;2023-09-12T05:30:18;37.95;;;25.42;;
32613;SDS011;19031;51.400;6.770;2023-09-12T05:32:43;45.00;;;27.02;;
32613;SDS011;19031;51.400;6.770;2023-09-12T05:35:09;42.35;;;26.73;;
32613;SDS011;19031;51.400;6.770;2023-09-12T05:37:37;35.25;;;24.65;;
32613;SDS011;19031;51.400;6.770;2023-09-12T05:40:02;36.78;;;25.17;;
32613;SDS011;19031;51.400;6.770;2023-09-12T05:42:29;41.85;;;26.48;;
32613;SDS011;19031;51.400;6.770;2023-09-12T05:44:54;37.13;;;25.38;;
32613;SDS011;19031;51.400;6.770;2023-09-12T05:47:21;33.17;;;24.38;;
32613;SDS011;19031;51.400;6.770;2023-09-12T05:49:47;41.63;;;26.85;;
32613;SDS011;19031;51.400;6.770;2023-09-12T05:52:13;42.95;;;27.25;;
32613;SDS011;19031;51.400;6.770;2023-09-12T05:54:39;35.72;;;24.80;;
32613;SDS011;19031;51.400;6.770;2023-09-12T05:57:08;43.22;;;26.70;;
32613;SDS011;19031;51.400;6.770;2023-09-12T05:59:38;42.78;;;28.98;;
32613;SDS011;19031;51.400;6.770;2023-09-12T06:02:04;41.50;;;26.95;;
32613;SDS011;19031;51.400;6.770;2023-09-12T06:04:31;37.97;;;26.70;;
32613;SDS011;19031;51.400;6.770;2023-09-12T06:06:57;39.00;;;26.23;;
32613;SDS011;19031;51.400;6.770;2023-09-12T06:09:23;37.10;;;25.75;;
32613;SDS011;19031;51.400;6.770;2023-09-12T06:11:48;49.60;;;27.77;;
32613;SDS011;19031;51.400;6.770;2023-09-12T06:14:14;54.55;;;28.92;;
32613;SDS011;19031;51.400;6.770;2023-09-12T06:16:40;19.02;;;7.70;;
32613;SDS011;19031;51.400;6.770;2023-09-12T06:19:05;15.65;;;6.15;;
32613;SDS011;19031;51.400;6.770;2023-09-12T06:21:31;17.65;;;6.15;;
32613;SDS011;19031;51.400;6.770;2023-09-12T06:24:15;15.50;;;8.80;;
32613;SDS011;19031;51.400;6.770;2023-09-12T06:26:42;12.95;;;4.70;;
32613;SDS011;19031;51.400;6.770;2023-09-12T06:29:08;5.28;;;2.45;;
32613;SDS011;19031;51.400;6.770;2023-09-12T06:31:34;5.82;;;1.23;;
32613;SDS011;19031;51.400;6.770;2023-09-12T06:34:00;5.13;;;2.80;;
32613;SDS011;19031;51.400;6.770;2023-09-12T06:36:29;4.20;;;1.98;;
32613;SDS011;19031;51.400;6.770;2023-09-12T06:38:55;5.28;;;1.65;;
32613;SDS011;19031;51.400;6.770;2023-09-12T06:41:21;4.75;;;2.15;;
32613;SDS011;19031;51.400;6.770;2023-09-12T06:43:47;6.70;;;2.38;;
32613;SDS011;19031;51.400;6.770;2023-09-12T06:46:13;6.15;;;3.38;;
32613;SDS011;19031;51.400;6.770;2023-09-12T06:48:39;8.13;;;3.10;;
32613;SDS011;19031;51.400;6.770;2023-09-12T06:51:05;6.97;;;2.63;;
32613;SDS011;19031;51.400;6.770;2023-09-12T06:53:33;9.30;;;2.28;;
32613;SDS011;19031;51.400;6.770;2023-09-12T06:55:59;5.70;;;2.70;;
32613;SDS011;19031;51.400;6.770;2023-09-12T06:58:25;6.07;;;2.10;;
32613;SDS011;19031;51.400;6.770;2023-09-12T07:00:51;6.55;;;2.42;;
32613;SDS011;19031;51.400;6.770;2023-09-12T07:03:16;7.40;;;2.60;;
32613;SDS011;19031;51.400;6.770;2023-09-12T07:05:43;6.43;;;1.98;;
32613;SDS011;19031;51.400;6.770;2023-09-12T07:08:18;5.38;;;2.95;;
32613;SDS011;19031;51.400;6.770;2023-09-12T07:10:49;5.47;;;2.38;;
32613;SDS011;19031;51.400;6.770;2023-09-12T07:13:14;8.98;;;2.80;;
32613;SDS011;19031;51.400;6.770;2023-09-12T07:15:43;5.93;;;2.30;;
32613;SDS011;19031;51.400;6.770;2023-09-12T07:18:12;6.47;;;2.78;;
32613;SDS011;19031;51.400;6.770;2023-09-12T07:20:43;4.72;;;2.25;;
32613;SDS011;19031;51.400;6.770;2023-09-12T07:23:11;14.48;;;3.53;;
32613;SDS011;19031;51.400;6.770;2023-09-12T07:25:40;9.85;;;4.32;;
32613;SDS011;19031;51.400;6.770;2023-09-12T07:28:12;10.95;;;4.25;;
32613;SDS011;19031;51.400;6.770;2023-09-12T07:30:42;11.43;;;4.28;;
32613;SDS011;19031;51.400;6.770;2023-09-12T07:33:11;9.00;;;4.28;;
32613;SDS011;19031;51.400;6.770;2023-09-12T07:35:36;9.32;;;3.72;;
32613;SDS011;19031;51.400;6.770;2023-09-12T07:38:08;8.43;;;3.63;;
32613;SDS011;19031;51.400;6.770;2023-09-12T07:40:33;10.75;;;3.95;;
32613;SDS011;19031;51.400;6.770;2023-09-12T07:42:59;8.73;;;3.75;;
32613;SDS011;19031;51.400;6.770;2023-09-12T07:45:24;9.07;;;3.92;;
32613;SDS011;19031;51.400;6.770;2023-09-12T07:47:50;14.02;;;3.53;;
32613;SDS011;19031;51.400;6.770;2023-09-12T07:50:16;8.05;;;3.22;;
32613;SDS011;19031;51.400;6.770;2023-09-12T07:52:42;7.05;;;3.00;;
32613;SDS011;19031;51.400;6.770;2023-09-12T07:55:08;9.93;;;3.50;;
32613;SDS011;19031;51.400;6.770;2023-09-12T07:57:34;7.45;;;3.15;;
32613;SDS011;19031;51.400;6.770;2023-09-12T08:00:04;7.75;;;3.00;;
32613;SDS011;19031;51.400;6.770;2023-09-12T08:02:34;10.68;;;3.70;;
32613;SDS011;19031;51.400;6.770;2023-09-12T08:05:01;9.88;;;2.78;;
32613;SDS011;19031;51.400;6.770;2023-09-12T08:07:33;8.18;;;3.15;;
32613;SDS011;19031;51.400;6.770;2023-09-12T08:10:00;6.90;;;2.92;;
32613;SDS011;19031;51.400;6.770;2023-09-12T08:12:26;8.98;;;2.83;;
32613;SDS011;19031;51.400;6.770;2023-09-12T08:14:54;6.15;;;2.60;;
32613;SDS011;19031;51.400;6.770;2023-09-12T08:17:29;4.85;;;2.50;;
32613;SDS011;19031;51.400;6.770;2023-09-12T08:19:55;6.18;;;3.22;;
32613;SDS011;19031;51.400;6.770;2023-09-12T08:22:20;6.13;;;3.42;;
32613;SDS011;19031;51.400;6.770;2023-09-12T08:24:49;5.30;;;2.83;;
32613;SDS011;19031;51.400;6.770;2023-09-12T08:27:24;5.07;;;2.22;;
32613;SDS011;19031;51.400;6.770;2023-09-12T08:29:49;4.20;;;2.35;;
32613;SDS011;19031;51.400;6.770;2023-09-12T08:32:15;4.45;;;2.50;;
32613;SDS011;19031;51.400;6.770;2023-09-12T08:34:43;4.80;;;2.30;;
32613;SDS011;19031;51.400;6.770;2023-09-12T08:37:09;3.80;;;2.35;;
32613;SDS011;19031;51.400;6.770;2023-09-12T08:39:41;6.07;;;2.53;;
32613;SDS011;19031;51.400;6.770;2023-09-12T08:42:11;3.70;;;2.38;;
32613;SDS011;19031;51.400;6.770;2023-09-12T08:44:43;4.32;;;2.25;;
32613;SDS011;19031;51.400;6.770;2023-09-12T08:47:10;4.28;;;2.30;;
32613;SDS011;19031;51.400;6.770;2023-09-12T08:49:59;4.20;;;2.35;;
32613;SDS011;19031;51.400;6.770;2023-09-12T08:52:25;6.60;;;3.28;;
32613;SDS011;19031;51.400;6.770;2023-09-12T08:54:50;7.05;;;4.57;;
32613;SDS011;19031;51.400;6.770;2023-09-12T08:57:16;9.45;;;6.18;;
32613;SDS011;19031;51.400;6.770;2023-09-12T08:59:45;9.75;;;6.40;;
32613;SDS011;19031;51.400;6.770;2023-09-12T09:02:15;9.68;;;7.57;;
32613;SDS011;19031;51.400;6.770;2023-09-12T09:04:45;12.30;;;9.50;;
32613;SDS011;19031;51.400;6.770;2023-09-12T09:07:12;25.98;;;15.68;;
32613;SDS011;19031;51.400;6.770;2023-09-12T09:09:38;25.27;;;16.42;;
32613;SDS011;19031;51.400;6.770;2023-09-12T09:12:08;14.52;;;9.75;;
32613;SDS011;19031;51.400;6.770;2023-09-12T09:14:35;20.73;;;15.05;;
32613;SDS011;19031;51.400;6.770;2023-09-12T09:17:01;16.65;;;11.75;;
32613;SDS011;19031;51.400;6.770;2023-09-12T09:19:40;19.15;;;14.00;;
32613;SDS011;19031;51.400;6.770;2023-09-12T09:22:08;22.02;;;15.15;;
32613;SDS011;19031;51.400;6.770;2023-09-12T09:24:33;24.65;;;17.00;;
32613;SDS011;19031;51.400;6.770;2023-09-12T09:27:02;24.58;;;13.98;;
32613;SDS011;19031;51.400;6.770;2023-09-12T09:29:28;21.85;;;13.20;;
32613;SDS011;19031;51.400;6.770;2023-09-12T09:31:57;23.73;;;15.48;;
32613;SDS011;19031;51.400;6.770;2023-09-12T09:34:24;16.63;;;10.82;;
32613;SDS011;19031;51.400;6.770;2023-09-12T09:36:53;17.05;;;10.98;;
32613;SDS011;19031;51.400;6.770;2023-09-12T09:39:25;10.90;;;9.05;;
32613;SDS011;19031;51.400;6.770;2023-09-12T09:41:52;10.82;;;8.45;;
32613;SDS011;19031;51.400;6.770;2023-09-12T09:44:24;15.68;;;11.57;;
32613;SDS011;19031;51.400;6.770;2023-09-12T09:46:59;19.55;;;13.25;;
32613;SDS011;19031;51.400;6.770;2023-09-12T09:49:31;20.25;;;14.07;;
32613;SDS011;19031;51.400;6.770;2023-09-12T09:51:59;25.25;;;16.48;;
32613;SDS011;19031;51.400;6.770;2023-09-12T09:54:27;25.95;;;21.48;;
32613;SDS011;19031;51.400;6.770;2023-09-12T09:56:54;24.65;;;16.55;;
32613;SDS011;19031;51.400;6.770;2023-09-12T09:59:22;20.58;;;15.15;;
32613;SDS011;19031;51.400;6.770;2023-09-12T10:01:50;34.13;;;22.60;;
32613;SDS011;19031;51.400;6.770;2023-09-12T10:04:18;26.02;;;19.88;;
32613;SDS011;19031;51.400;6.770;2023-09-12T10:06:45;29.83;;;18.63;;
32613;SDS011;19031;51.400;6.770;2023-09-12T10:09:13;25.70;;;18.00;;
32613;SDS011;19031;51.400;6.770;2023-09-12T10:11:41;25.63;;;16.67;;
32613;SDS011;19031;51.400;6.770;2023-09-12T10:14:08;30.52;;;25.48;;
32613;SDS011;19031;51.400;6.770;2023-09-12T10:19:35;32.92;;;26.52;;
32613;SDS011;19031;51.400;6.770;2023-09-12T10:22:16;35.53;;;25.13;;
32613;SDS011;19031;51.400;6.770;2023-09-12T10:24:49;34.47;;;22.65;;
32613;SDS011;19031;51.400;6.770;2023-09-12T10:27:15;32.20;;;22.63;;
32613;SDS011;19031;51.400;6.770;2023-09-12T10:29:43;28.55;;;20.45;;
32613;SDS011;19031;51.400;6.770;2023-09-12T10:32:12;27.67;;;18.25;;
32613;SDS011;19031;51.400;6.770;2023-09-12T10:34:42;26.02;;;18.05;;
32613;SDS011;19031;51.400;6.770;2023-09-12T10:37:12;23.85;;;17.25;;
32613;SDS011;19031;51.400;6.770;2023-09-12T10:39:44;24.80;;;16.33;;
32613;SDS011;19031;51.400;6.770;2023-09-12T10:42:11;22.00;;;14.35;;
32613;SDS011;19031;51.400;6.770;2023-09-12T10:44:38;20.38;;;12.80;;
32613;SDS011;19031;51.400;6.770;2023-09-12T10:47:04;18.05;;;12.43;;
32613;SDS011;19031;51.400;6.770;2023-09-12T10:49:30;15.35;;;11.88;;
32613;SDS011;19031;51.400;6.770;2023-09-12T10:51:56;15.52;;;12.40;;
32613;SDS011;19031;51.400;6.770;2023-09-12T10:54:23;17.00;;;11.35;;
32613;SDS011;19031;51.400;6.770;2023-09-12T10:57:09;16.52;;;10.57;;
32613;SDS011;19031;51.400;6.770;2023-09-12T11:02:28;13.65;;;8.68;;
32613;SDS011;19031;51.400;6.770;2023-09-12T11:05:01;11.20;;;7.22;;
32613;SDS011;19031;51.400;6.770;2023-09-12T11:07:50;15.75;;;8.82;;
32613;SDS011;19031;51.400;6.770;2023-09-12T11:10:15;18.17;;;7.55;;
32613;SDS011;19031;51.400;6.770;2023-09-12T11:12:43;10.25;;;7.97;;
32613;SDS011;19031;51.400;6.770;2023-09-12T11:15:10;12.82;;;7.63;;
32613;SDS011;19031;51.400;6.770;2023-09-12T11:17:39;10.50;;;7.35;;
32613;SDS011;19031;51.400;6.770;2023-09-12T11:20:06;8.75;;;6.15;;
32613;SDS011;19031;51.400;6.770;2023-09-12T11:22:36;9.30;;;5.97;;
32613;SDS011;19031;51.400;6.770;2023-09-12T11:25:04;9.55;;;5.60;;
32613;SDS011;19031;51.400;6.770;2023-09-12T11:27:44;8.60;;;5.60;;
32613;SDS011;19031;51.400;6.770;2023-09-12T11:30:27;7.78;;;5.80;;
32613;SDS011;19031;51.400;6.770;2023-09-12T11:32:59;9.18;;;5.88;;
32613;SDS011;19031;51.400;6.770;2023-09-12T11:35:38;9.40;;;5.50;;
32613;SDS011;19031;51.400;6.770;2023-09-12T11:38:09;7.70;;;5.40;;
32613;SDS011;19031;51.400;6.770;2023-09-12T11:43:02;9.40;;;4.80;;
32613;SDS011;19031;51.400;6.770;2023-09-12T11:45:27;10.00;;;5.38;;
32613;SDS011;19031;51.400;6.770;2023-09-12T11:47:54;7.30;;;5.55;;
32613;SDS011;19031;51.400;6.770;2023-09-12T11:53:02;10.80;;;4.60;;
32613;SDS011;19031;51.400;6.770;2023-09-12T11:55:30;7.95;;;5.25;;
32613;SDS011;19031;51.400;6.770;2023-09-12T11:57:57;10.73;;;4.13;;
32613;SDS011;19031;51.400;6.770;2023-09-12T12:00:23;6.32;;;3.60;;
32613;SDS011;19031;51.400;6.770;2023-09-12T12:02:51;5.75;;;4.53;;
32613;SDS011;19031;51.400;6.770;2023-09-12T12:05:18;5.28;;;3.80;;
32613;SDS011;19031;51.400;6.770;2023-09-12T12:07:44;4.93;;;3.80;;
32613;SDS011;19031;51.400;6.770;2023-09-12T12:10:12;5.97;;;3.60;;
32613;SDS011;19031;51.400;6.770;2023-09-12T12:12:39;6.60;;;3.78;;
32613;SDS011;19031;51.400;6.770;2023-09-12T12:15:09;5.28;;;3.92;;
32613;SDS011;19031;51.400;6.770;2023-09-12T12:17:36;4.05;;;3.55;;
32613;SDS011;19031;51.400;6.770;2023-09-12T12:20:06;5.75;;;3.90;;
32613;SDS011;19031;51.400;6.770;2023-09-12T12:22:37;4.65;;;3.65;;
32613;SDS011;19031;51.400;6.770;2023-09-12T12:25:06;4.32;;;3.67;;
32613;SDS011;19031;51.400;6.770;2023-09-12T12:27:41;5.03;;;4.22;;
32613;SDS011;19031;51.400;6.770;2023-09-12T12:30:08;5.35;;;4.65;;
32613;SDS011;19031;51.400;6.770;2023-09-12T12:32:41;5.88;;;4.00;;
32613;SDS011;19031;51.400;6.770;2023-09-12T12:35:08;11.10;;;5.45;;
32613;SDS011;19031;51.400;6.770;2023-09-12T12:37:35;7.07;;;5.18;;
32613;SDS011;19031;51.400;6.770;2023-09-12T12:40:02;7.30;;;5.05;;
32613;SDS011;19031;51.400;6.770;2023-09-12T12:42:39;13.00;;;5.80;;
32613;SDS011;19031;51.400;6.770;2023-09-12T12:45:20;7.65;;;5.50;;
32613;SDS011;19031;51.400;6.770;2023-09-12T12:47:58;6.35;;;4.60;;
32613;SDS011;19031;51.400;6.770;2023-09-12T12:50:25;5.97;;;4.90;;
32613;SDS011;19031;51.400;6.770;2023-09-12T12:52:53;8.07;;;5.03;;
32613;SDS011;19031;51.400;6.770;2023-09-12T12:55:20;5.88;;;5.25;;
32613;SDS011;19031;51.400;6.770;2023-09-12T12:57:47;7.72;;;5.18;;
32613;SDS011;19031;51.400;6.770;2023-09-12T13:00:14;6.75;;;4.78;;
32613;SDS011;19031;51.400;6.770;2023-09-12T13:02:41;5.25;;;4.35;;
32613;SDS011;19031;51.400;6.770;2023-09-12T13:05:29;5.68;;;4.07;;
32613;SDS011;19031;51.400;6.770;2023-09-12T13:07:55;7.05;;;4.28;;
32613;SDS011;19031;51.400;6.770;2023-09-12T13:10:21;8.10;;;5.35;;
32613;SDS011;19031;51.400;6.770;2023-09-12T13:12:47;9.60;;;5.65;;
32613;SDS011;19031;51.400;6.770;2023-09-12T13:15:13;9.68;;;5.10;;
32613;SDS011;19031;51.400;6.770;2023-09-12T13:17:40;7.22;;;4.85;;
32613;SDS011;19031;51.400;6.770;2023-09-12T13:20:06;13.63;;;7.43;;
32613;SDS011;19031;51.400;6.770;2023-09-12T13:22:33;15.50;;;10.43;;
32613;SDS011;19031;51.400;6.770;2023-09-12T13:24:59;11.40;;;7.13;;
32613;SDS011;19031;51.400;6.770;2023-09-12T13:27:25;8.35;;;5.00;;
32613;SDS011;19031;51.400;6.770;2023-09-12T13:29:50;6.60;;;5.50;;
32613;SDS011;19031;51.400;6.770;2023-09-12T13:32:16;9.20;;;6.03;;
32613;SDS011;19031;51.400;6.770;2023-09-12T13:34:46;8.20;;;6.32;;
32613;SDS011;19031;51.400;6.770;2023-09-12T13:37:11;7.95;;;7.15;;
32613;SDS011;19031;51.400;6.770;2023-09-12T13:39:37;7.07;;;6.32;;
32613;SDS011;19031;51.400;6.770;2023-09-12T13:42:05;9.52;;;6.07;;
32613;SDS011;19031;51.400;6.770;2023-09-12T13:44:33;7.18;;;6.22;;
32613;SDS011;19031;51.400;6.770;2023-09-12T13:46:59;11.88;;;7.03;;
32613;SDS011;19031;51.400;6.770;2023-09-12T13:49:24;7.53;;;6.60;;
32613;SDS011;19031;51.400;6.770;2023-09-12T13:51:50;14.45;;;7.78;;
32613;SDS011;19031;51.400;6.770;2023-09-12T13:54:16;10.95;;;7.40;;
32613;SDS011;19031;51.400;6.770;2023-09-12T13:56:41;9.65;;;8.20;;
32613;SDS011;19031;51.400;6.770;2023-09-12T13:59:07;14.15;;;10.00;;
32613;SDS011;19031;51.400;6.770;2023-09-12T14:01:33;16.20;;;11.60;;
32613;SDS011;19031;51.400;6.770;2023-09-12T14:03:58;13.90;;;10.65;;
32613;SDS011;19031;51.400;6.770;2023-09-12T14:06:24;14.13;;;8.20;;
32613;SDS011;19031;51.400;6.770;2023-09-12T14:08:51;8.63;;;6.20;;
32613;SDS011;19031;51.400;6.770;2023-09-12T14:11:17;10.45;;;8.13;;
32613;SDS011;19031;51.400;6.770;2023-09-12T14:13:43;10.80;;;8.85;;
32613;SDS011;19031;51.400;6.770;2023-09-12T14:16:09;10.30;;;7.40;;
32613;SDS011;19031;51.400;6.770;2023-09-12T14:18:35;13.10;;;9.40;;
32613;SDS011;19031;51.400;6.770;2023-09-12T14:21:01;9.60;;;7.18;;
32613;SDS011;19031;51.400;6.770;2023-09-12T14:23:27;8.18;;;6.20;;
32613;SDS011;19031;51.400;6.770;2023-09-12T14:25:53;6.75;;;6.05;;
32613;SDS011;19031;51.400;6.770;2023-09-12T14:28:21;10.18;;;7.20;;
32613;SDS011;19031;51.400;6.770;2023-09-12T14:30:50;11.02;;;7.93;;
32613;SDS011;19031;51.400;6.770;2023-09-12T14:33:16;7.60;;;6.68;;
32613;SDS011;19031;51.400;6.770;2023-09-12T14:35:43;10.55;;;5.78;;
32613;SDS011;19031;51.400;6.770;2023-09-12T14:38:10;9.40;;;5.95;;
32613;SDS011;19031;51.400;6.770;2023-09-12T14:40:37;8.98;;;6.00;;
32613;SDS011;19031;51.400;6.770;2023-09-12T14:43:04;6.65;;;5.95;;
32613;SDS011;19031;51.400;6.770;2023-09-12T14:45:30;10.07;;;6.28;;
32613;SDS011;19031;51.400;6.770;2023-09-12T14:47:56;8.82;;;7.53;;